Time;durP1;ratioP1;P1;durP2;ratioP2;P2;SDS_P1;SDS_P2;PMS_P1;PMS_P2;Temp;Humidity;BMP_temperature;BMP_pressure;BME280_temperature;BME280_humidity;BME280_pressure;Samples;Min_cycle;Max_cycle;Signal;HPM_P1;HPM_P2
2022/07/15 00:01:41;;;;;;;5.30;3.80;;;15.50;99.90;15.60;97606.00;;;;5058018;27;82119;-62
2022/07/15 00:04:09;;;;;;;6.68;4.00;;;15.50;99.90;15.60;97608.00;;;;5061814;27;81691;-62
2022/07/15 00:06:36;;;;;;;6.82;4.13;;;15.50;99.90;15.60;97612.00;;;;5061442;27;82303;-63
2022/07/15 00:09:02;;;;;;;4.85;3.40;;;15.40;99.90;15.50;97610.00;;;;5062109;27;81760;-62
2022/07/15 00:11:29;;;;;;;5.32;3.95;;;15.40;99.90;15.50;97606.00;;;;5058899;27;81521;-62
2022/07/15 00:13:55;;;;;;;5.10;3.45;;;15.30;99.90;15.50;97612.00;;;;5060992;27;81884;-62
2022/07/15 00:16:21;;;;;;;6.25;3.63;;;15.40;99.90;15.50;97604.00;;;;5061169;27;82349;-63
2022/07/15 00:18:47;;;;;;;6.07;3.90;;;15.40;99.90;15.40;97594.00;;;;5061197;27;81878;-62
2022/07/15 00:21:14;;;;;;;10.57;3.53;;;15.40;99.90;15.50;97596.00;;;;5056530;27;82282;-62
2022/07/15 00:23:40;;;;;;;5.68;3.75;;;;;15.50;97610.00;;;;5060647;27;81935;-62
2022/07/15 00:26:06;;;;;;;6.40;3.83;;;15.40;99.90;15.50;97613.00;;;;5061206;27;82303;-62
2022/07/15 00:28:33;;;;;;;4.18;3.47;;;15.40;99.90;15.40;97598.00;;;;5061411;27;82957;-62
2022/07/15 00:30:59;;;;;;;4.07;3.67;;;15.40;99.90;15.40;97611.00;;;;5060729;27;81867;-62
2022/07/15 00:33:25;;;;;;;3.63;3.05;;;15.30;99.90;15.40;97602.00;;;;5061168;27;81918;-62
2022/07/15 00:35:52;;;;;;;6.35;3.50;;;15.30;99.90;15.40;97601.00;;;;5060641;27;82585;-65
2022/07/15 00:38:18;;;;;;;7.88;3.67;;;15.30;99.90;15.40;97608.00;;;;5061117;27;81921;-61
2022/07/15 00:40:49;;;;;;;6.65;3.85;;;15.30;99.90;15.40;97600.00;;;;5061759;27;81541;-61
2022/07/15 00:43:17;;;;;;;6.50;4.22;;;15.30;99.90;15.40;97604.00;;;;5061077;27;81599;-61
2022/07/15 00:45:45;;;;;;;10.10;4.20;;;15.30;99.90;15.40;97607.00;;;;5058481;27;82143;-62
2022/07/15 00:48:11;;;;;;;5.32;3.65;;;15.30;99.90;15.40;97618.00;;;;5057976;27;81751;-61
2022/07/15 00:50:39;;;;;;;8.77;4.03;;;15.20;99.90;15.30;97616.00;;;;5046413;28;81583;-62
2022/07/15 00:53:20;;;;;;;6.30;3.53;;;15.20;99.90;15.30;97615.00;;;;5046668;27;81887;-64
2022/07/15 00:55:47;;;;;;;6.03;3.85;;;15.20;99.90;15.30;97607.00;;;;5046675;27;81932;-62
2022/07/15 00:58:23;;;;;;;6.53;4.32;;;15.10;99.90;15.20;97593.00;;;;5044802;28;82905;-63
2022/07/15 01:00:50;;;;;;;7.13;4.03;;;15.10;99.90;15.20;97600.00;;;;5046082;28;82820;-61
2022/07/15 01:03:18;;;;;;;5.72;3.90;;;15.10;99.90;15.20;97604.00;;;;5045686;28;82353;-62
2022/07/15 01:05:46;;;;;;;5.95;3.97;;;15.00;99.90;15.10;97604.00;;;;5045718;28;83590;-62
2022/07/15 01:08:15;;;;;;;4.65;4.03;;;15.00;99.90;15.10;97613.00;;;;5045416;28;81708;-62
2022/07/15 01:10:42;;;;;;;7.78;3.72;;;14.90;99.90;15.00;97622.00;;;;5047103;28;81762;-64
2022/07/15 01:13:09;;;;;;;5.65;4.28;;;14.90;99.90;15.00;97628.00;;;;5046708;28;81809;-65
2022/07/15 01:15:36;;;;;;;4.53;4.03;;;14.90;99.90;15.00;97634.00;;;;5055206;27;82462;-62
2022/07/15 01:18:04;;;;;;;5.18;4.28;;;14.90;99.90;14.90;97634.00;;;;5063137;27;82204;-63
2022/07/15 01:20:39;;;;;;;8.32;4.90;;;14.90;99.90;15.00;97628.00;;;;5045737;28;81733;-63
2022/07/15 01:23:06;;;;;;;5.97;4.68;;;14.90;99.90;15.00;97644.00;;;;5063657;27;81665;-67
2022/07/15 01:25:37;;;;;;;7.40;4.95;;;14.80;99.90;14.90;97634.00;;;;5014417;28;82817;-63
2022/07/15 01:28:09;;;;;;;5.57;4.90;;;14.80;99.90;14.90;97648.00;;;;5046069;28;81867;-63
2022/07/15 01:30:36;;;;;;;6.55;4.25;;;14.80;99.90;14.90;97643.00;;;;5046913;27;81542;-63
2022/07/15 01:33:06;;;;;;;5.60;4.60;;;14.80;99.90;14.90;97657.00;;;;5046540;28;81757;-62
2022/07/15 01:35:33;;;;;;;7.68;5.10;;;14.80;99.90;14.90;97672.00;;;;5045813;28;82619;-64
2022/07/15 01:38:01;;;;;;;6.85;4.78;;;14.80;99.90;14.80;97662.00;;;;5045972;28;81758;-65
2022/07/15 01:40:28;;;;;;;6.82;5.90;;;14.80;99.90;14.80;97668.00;;;;5054614;27;81483;-62
2022/07/15 01:42:57;;;;;;;6.45;5.82;;;14.70;99.90;14.80;97674.00;;;;5029720;28;81890;-63
2022/07/15 01:45:24;;;;;;;10.85;5.75;;;14.70;99.90;14.70;97668.00;;;;5046143;28;82292;-63
2022/07/15 01:47:54;;;;;;;9.05;6.35;;;14.70;99.90;14.80;97665.00;;;;5023020;28;81874;-62
2022/07/15 01:50:43;;;;;;;;;;;14.70;99.90;14.70;97658.00;;;;5047008;28;81718;-64
2022/07/15 01:53:14;;;;;;;7.53;4.88;;;14.70;99.90;14.70;97657.00;;;;5055183;27;82294;-63
2022/07/15 01:55:42;;;;;;;5.60;4.75;;;14.70;99.90;14.80;97647.00;;;;5044371;27;84417;-62
2022/07/15 01:58:08;;;;;;;5.53;4.20;;;14.70;99.90;14.80;97645.00;;;;5036870;28;83508;-63
2022/07/15 02:00:37;;;;;;;8.40;5.28;;;14.70;99.90;14.70;97660.00;;;;5044541;27;81478;-63
2022/07/15 02:03:04;;;;;;;7.05;4.75;;;14.70;99.90;14.70;97663.00;;;;5028821;28;82961;-63
2022/07/15 02:05:32;;;;;;;5.75;4.70;;;;;14.80;97668.00;;;;5047002;27;82359;-62
2022/07/15 02:07:59;;;;;;;9.10;4.65;;;14.70;99.90;14.70;97665.00;;;;5045149;28;82424;-63
2022/07/15 02:10:39;;;;;;;9.57;4.60;;;14.70;99.90;14.70;97664.00;;;;5037353;28;81517;-63
2022/07/15 02:13:13;;;;;;;8.07;4.53;;;14.60;99.90;14.70;97669.00;;;;5046397;27;81687;-62
2022/07/15 02:16:00;;;;;;;5.10;3.90;;;14.70;99.90;14.70;97668.00;;;;5018865;28;82832;-62
2022/07/15 02:18:28;;;;;;;5.88;4.22;;;14.60;99.90;14.70;97674.00;;;;5045620;28;81603;-63
2022/07/15 02:20:56;;;;;;;8.38;5.32;;;;;14.70;97677.00;;;;5010287;28;82067;-64
2022/07/15 02:23:23;;;;;;;10.55;4.88;;;14.60;99.90;14.70;97679.00;;;;5045976;28;81642;-62
2022/07/15 02:25:50;;;;;;;7.07;4.30;;;14.70;99.90;14.70;97675.00;;;;5028348;28;81688;-62
2022/07/15 02:28:23;;;;;;;7.68;4.07;;;14.90;99.90;14.90;97693.00;;;;5062370;27;82971;-64
2022/07/15 02:30:51;;;;;;;6.43;3.75;;;15.00;99.90;15.10;97682.00;;;;5054528;27;82028;-63
2022/07/15 02:33:18;;;;;;;5.05;3.47;;;15.00;99.90;15.10;97671.00;;;;5062657;27;81569;-63
2022/07/15 02:35:45;;;;;;;5.85;4.00;;;15.00;99.90;15.10;97674.00;;;;5045959;27;84342;-65
2022/07/15 02:38:14;;;;;;;8.68;3.65;;;15.00;99.90;15.00;97674.00;;;;4992925;28;83811;-62
2022/07/15 02:40:41;;;;;;;6.82;3.83;;;15.00;99.90;15.10;97668.00;;;;5045663;27;81577;-63
2022/07/15 02:43:09;;;;;;;7.22;3.13;;;15.50;99.90;15.60;97668.00;;;;5028008;28;82549;-64
2022/07/15 02:45:41;;;;;;;5.82;2.65;;;16.10;99.90;16.30;97669.00;;;;5036674;28;84982;-64
2022/07/15 02:48:10;;;;;;;3.90;2.40;;;16.80;99.90;17.10;97671.00;;;;5061010;27;82021;-65
2022/07/15 02:50:42;;;;;;;6.05;2.53;;;17.50;99.90;17.80;97672.00;;;;5027924;28;82985;-64
2022/07/15 02:53:09;;;;;;;5.82;2.38;;;18.20;99.90;18.40;97686.00;;;;5045254;28;81697;-63
2022/07/15 02:55:39;;;;;;;4.25;1.90;;;18.80;99.90;19.30;97682.00;;;;5036627;28;81873;-62
2022/07/15 02:58:08;;;;;;;5.60;2.40;;;19.20;99.90;19.40;97681.00;;;;5028313;28;81730;-65
2022/07/15 03:00:35;;;;;;;5.07;1.92;;;;;19.40;97678.00;;;;5041961;28;81766;-64
2022/07/15 03:03:05;;;;;;;4.82;2.30;;;;;19.50;97681.00;;;;5045036;27;81659;-62
2022/07/15 03:05:36;;;;;;;3.53;2.15;;;19.50;99.90;19.80;97683.00;;;;5044547;28;83748;-64
2022/07/15 03:08:03;;;;;;;4.97;1.83;;;19.80;99.90;20.10;97683.00;;;;5044746;28;84105;-64
2022/07/15 03:10:30;;;;;;;4.80;1.95;;;;;20.40;97689.00;;;;5044636;28;82926;-62
2022/07/15 03:13:06;;;;;;;6.00;2.28;;;20.20;99.90;20.70;97696.00;;;;5028831;28;81744;-64
2022/07/15 03:15:33;;;;;;;6.35;2.42;;;20.60;99.90;21.10;97691.00;;;;5016787;28;85638;-63
2022/07/15 03:18:00;;;;;;;4.85;1.85;;;20.40;99.90;21.00;97713.00;;;;5045457;27;81939;-63
2022/07/15 03:20:32;;;;;;;5.35;2.13;;;19.90;99.90;20.40;97716.00;;;;5019241;28;82301;-64
2022/07/15 03:23:03;;;;;;;4.80;2.47;;;19.40;99.90;19.80;97719.00;;;;5044344;28;81684;-63
2022/07/15 03:25:35;;;;;;;6.85;2.85;;;18.60;99.90;19.00;97725.00;;;;5044528;27;82730;-64
2022/07/15 03:28:07;;;;;;;6.22;2.60;;;18.20;99.90;18.50;97729.00;;;;5045298;27;81915;-65
2022/07/15 03:30:43;;;;;;;4.05;2.50;;;;;18.10;97721.00;;;;5032487;28;81728;-64
2022/07/15 03:33:12;;;;;;;6.40;2.92;;;17.40;99.90;17.60;97720.00;;;;5028180;28;81740;-64
2022/07/15 03:35:42;;;;;;;3.05;2.30;;;17.00;99.90;17.20;97716.00;;;;5033897;28;85412;-62
2022/07/15 03:38:10;;;;;;;4.55;2.30;;;16.90;99.90;17.10;97714.00;;;;5044040;28;81533;-63
2022/07/15 03:40:37;;;;;;;5.43;2.67;;;16.90;99.90;17.00;97721.00;;;;5052397;27;82108;-63
2022/07/15 03:43:03;;;;;;;6.25;3.08;;;16.80;99.90;16.90;97738.00;;;;5044005;28;81608;-64
2022/07/15 03:45:34;;;;;;;4.40;2.30;;;17.20;99.90;17.40;97730.00;;;;5044191;28;82234;-62
2022/07/15 03:48:01;;;;;;;5.15;2.38;;;17.70;99.90;18.10;97730.00;;;;5044540;27;83111;-65
2022/07/15 03:50:30;;;;;;;8.90;2.58;;;18.50;99.90;18.80;97726.00;;;;5052597;27;82041;-62
2022/07/15 03:53:02;;;;;;;6.38;2.90;;;;;19.50;97726.00;;;;5044143;28;81730;-64
2022/07/15 03:55:30;;;;;;;3.72;2.22;;;;;20.00;97728.00;;;;5043943;28;83620;-64
2022/07/15 03:57:58;;;;;;;4.68;2.33;;;19.80;99.90;20.20;97725.00;;;;5026518;28;84292;-63
2022/07/15 04:00:28;;;;;;;8.35;2.45;;;19.90;99.90;20.40;97727.00;;;;5043296;28;84730;-64
2022/07/15 04:02:58;;;;;;;4.50;2.30;;;19.80;99.90;20.20;97734.00;;;;5027260;28;81885;-64
2022/07/15 04:05:25;;;;;;;4.57;2.53;;;19.90;99.90;20.30;97731.00;;;;5050056;27;84076;-63
2022/07/15 04:07:52;;;;;;;9.65;2.45;;;20.10;99.90;20.50;97732.00;;;;5040764;28;83715;-63
2022/07/15 04:10:19;;;;;;;8.23;3.00;;;20.10;99.90;20.60;97721.00;;;;5024720;28;86020;-63
2022/07/15 04:12:46;;;;;;;9.38;2.42;;;20.10;99.90;20.50;97738.00;;;;5034141;28;82121;-64
2022/07/15 04:15:15;;;;;;;5.05;2.30;;;20.10;99.90;20.60;97745.00;;;;5032817;27;82509;-62
2022/07/15 04:17:45;;;;;;;8.18;2.40;;;20.20;99.90;20.70;97745.00;;;;5042546;28;85991;-63
2022/07/15 04:20:16;;;;;;;3.65;2.10;;;20.60;99.90;21.00;97750.00;;;;5038203;28;82329;-65
2022/07/15 04:22:50;;;;;;;4.65;2.15;;;;;21.00;97760.00;;;;5026320;28;82077;-63
2022/07/15 04:25:20;;;;;;;5.28;2.97;;;;;20.90;97757.00;;;;5052211;27;82399;-63
2022/07/15 04:27:48;;;;;;;3.75;2.22;;;20.30;99.90;20.60;97758.00;;;;5047513;28;83009;-64
2022/07/15 04:30:17;;;;;;;3.47;1.98;;;20.20;99.90;20.80;97760.00;;;;5024036;28;84329;-63
2022/07/15 04:32:48;;;;;;;5.38;1.80;;;20.30;99.90;20.70;97765.00;;;;5045931;28;83311;-66
2022/07/15 04:35:18;;;;;;;5.25;2.00;;;20.30;99.90;20.80;97775.00;;;;5042868;27;82519;-64
2022/07/15 04:37:50;;;;;;;5.68;1.95;;;20.40;99.90;21.00;97799.00;;;;5054608;27;83122;-62
2022/07/15 04:40:17;;;;;;;2.40;1.92;;;20.70;99.90;21.20;97796.00;;;;5049017;27;82785;-64
2022/07/15 04:42:44;;;;;;;6.55;1.80;;;20.30;99.90;21.50;97787.00;;;;5029314;28;82595;-64
2022/07/15 04:45:15;;;;;;;7.22;1.70;;;21.20;99.90;21.80;97781.00;;;;5062918;27;82385;-63
2022/07/15 04:47:47;;;;;;;11.02;2.47;;;21.60;99.90;22.00;97789.00;;;;5045129;28;85526;-64
2022/07/15 04:53:08;;;;;;;4.60;1.50;;;21.60;99.90;22.20;97806.00;;;;5026944;28;82511;-64
2022/07/15 04:55:35;;;;;;;6.93;1.70;;;21.80;99.90;22.30;97809.00;;;;5046427;28;82344;-64
2022/07/15 04:58:07;;;;;;;4.68;2.00;;;21.80;99.90;22.50;97816.00;;;;5044849;28;86071;-63
2022/07/15 05:00:33;;;;;;;2.53;1.52;;;21.80;99.90;22.50;97819.00;;;;5026349;28;82021;-63
2022/07/15 05:03:04;;;;;;;3.83;1.33;;;22.10;99.90;22.90;97814.00;;;;5042707;28;82677;-64
2022/07/15 05:05:33;;;;;;;3.33;1.45;;;22.30;99.90;23.00;97811.00;;;;5045169;27;82512;-63
2022/07/15 05:08:01;;;;;;;9.50;2.15;;;22.30;99.90;23.10;97805.00;;;;5019037;28;83575;-65
2022/07/15 05:10:28;;;;;;;4.50;1.73;;;22.60;99.90;23.30;97800.00;;;;5041681;27;83149;-65
2022/07/15 05:13:03;;;;;;;4.60;1.63;;;23.00;99.90;23.80;97790.00;;;;5043199;27;82356;-64
2022/07/15 05:15:34;;;;;;;2.15;1.20;;;;;24.10;97769.00;;;;5062396;27;82222;-64
2022/07/15 05:18:15;;;;;;;5.20;1.33;;;;;23.70;97771.00;;;;5029967;28;83214;-63
2022/07/15 05:20:45;;;;;;;5.22;1.30;;;22.90;99.90;23.50;97785.00;;;;5045379;28;82379;-64
2022/07/15 05:23:17;;;;;;;2.05;1.42;;;22.80;99.90;23.40;97779.00;;;;5044719;28;82894;-63
2022/07/15 05:25:54;;;;;;;4.20;1.30;;;22.90;99.90;23.60;97782.00;;;;5045188;28;82396;-64
2022/07/15 05:28:22;;;;;;;2.97;1.25;;;22.40;99.90;23.10;97781.00;;;;5044541;27;82737;-65
2022/07/15 05:30:50;;;;;;;3.58;1.30;;;;;22.60;97784.00;;;;5043468;27;82852;-64
2022/07/15 05:33:18;;;;;;;4.90;1.50;;;22.20;99.90;22.60;97783.00;;;;5031071;27;82754;-63
2022/07/15 05:35:50;;;;;;;4.05;1.40;;;22.50;99.90;23.30;97787.00;;;;5043338;27;85565;-63
2022/07/15 05:38:23;;;;;;;2.40;1.40;;;22.60;99.90;23.40;97793.00;;;;5045309;27;84007;-65
2022/07/15 05:40:53;;;;;;;5.65;1.33;;;22.60;99.90;23.10;97785.00;;;;5031080;28;85491;-63
2022/07/15 05:43:26;;;;;;;5.93;1.65;;;23.00;99.90;23.90;97781.00;;;;5044861;28;82153;-62
2022/07/15 05:45:55;;;;;;;3.67;1.08;;;;;23.70;97788.00;;;;5043213;27;82876;-65
2022/07/15 05:48:27;;;;;;;3.58;1.50;;;;;23.80;97787.00;;;;5042767;28;83418;-63
2022/07/15 05:51:00;;;;;;;6.22;2.47;;;23.60;99.90;24.40;97784.00;;;;5042436;28;82629;-65
2022/07/15 05:53:28;;;;;;;2.90;1.40;;;;;24.20;97781.00;;;;5041587;27;82549;-64
2022/07/15 05:55:58;;;;;;;3.30;1.38;;;23.60;99.90;24.30;97792.00;;;;5042499;28;83663;-65
2022/07/15 05:58:33;;;;;;;4.68;1.52;;;23.30;99.90;23.80;97797.00;;;;5061530;27;82820;-63
2022/07/15 06:01:00;;;;;;;5.30;1.40;;;22.80;99.90;23.40;97790.00;;;;5041486;28;82477;-64
2022/07/15 06:03:40;;;;;;;6.38;1.80;;;23.00;99.90;23.70;97789.00;;;;5046970;27;82054;-64
2022/07/15 06:06:16;;;;;;;3.55;1.35;;;;;23.40;97796.00;;;;5060990;27;83343;-63
2022/07/15 06:08:51;;;;;;;3.53;1.40;;;;;23.10;97787.00;;;;5035895;28;84561;-65
2022/07/15 06:11:21;;;;;;;3.33;1.48;;;22.80;99.90;23.50;97783.00;;;;5019141;28;85166;-64
2022/07/15 06:13:53;;;;;;;5.30;1.52;;;23.00;99.90;23.80;97795.00;;;;5028202;27;82906;-63
2022/07/15 06:16:22;;;;;;;3.22;1.55;;;23.10;99.90;23.90;97788.00;;;;5044325;28;82173;-66
2022/07/15 06:18:50;;;;;;;2.60;1.10;;;22.90;99.90;23.70;97785.00;;;;5045365;27;82699;-62
2022/07/15 06:21:18;;;;;;;3.40;1.40;;;23.50;99.90;24.30;97789.00;;;;5061783;27;82429;-63
2022/07/15 06:23:46;;;;;;;7.30;1.50;;;;;23.80;97792.00;;;;5026504;28;82272;-62
2022/07/15 06:26:13;;;;;;;6.55;2.00;;;;;23.80;97792.00;;;;5043413;27;82237;-64
2022/07/15 06:28:42;;;;;;;3.67;1.67;;;22.80;99.90;23.40;97797.00;;;;5025945;28;83567;-63
2022/07/15 06:31:09;;;;;;;10.20;1.67;;;22.60;99.90;23.20;97779.00;;;;5044419;27;83844;-64
2022/07/15 06:33:45;;;;;;;4.22;1.35;;;22.50;99.90;23.00;97772.00;;;;5043504;28;82466;-65
2022/07/15 06:36:14;;;;;;;5.93;1.52;;;22.20;99.90;22.50;97791.00;;;;5048203;27;82287;-64
2022/07/15 06:38:52;;;;;;;3.38;1.83;;;22.00;99.90;22.20;97792.00;;;;5025880;28;85334;-64
2022/07/15 06:41:22;;;;;;;3.13;1.58;;;21.90;99.90;22.20;97790.00;;;;5044034;28;83842;-64
2022/07/15 06:43:51;;;;;;;7.40;1.92;;;;;22.30;97779.00;;;;5043871;27;82131;-63
2022/07/15 06:46:35;;;;;;;3.22;1.80;;;21.90;99.90;22.20;97791.00;;;;5029701;28;82982;-64
2022/07/15 06:49:06;;;;;;;3.88;1.65;;;21.80;99.90;22.00;97789.00;;;;5059969;27;83388;-62
2022/07/15 06:51:33;;;;;;;2.35;1.50;;;22.00;99.90;22.20;97804.00;;;;5045285;28;82270;-63
2022/07/15 06:54:02;;;;;;;3.90;1.52;;;21.70;99.90;22.00;97808.00;;;;5042548;27;81941;-64
2022/07/15 06:56:31;;;;;;;8.25;2.35;;;21.80;99.90;22.10;97807.00;;;;5043536;28;82412;-63
2022/07/15 06:59:02;;;;;;;4.25;2.17;;;;;22.20;97812.00;;;;5024979;28;85194;-61
2022/07/15 07:01:29;;;;;;;4.93;1.98;;;21.90;99.90;22.20;97810.00;;;;5011064;28;83639;-63
2022/07/15 07:03:58;;;;;;;2.30;2.10;;;21.80;99.90;22.00;97814.00;;;;5043164;28;83386;-63
2022/07/15 07:06:26;;;;;;;2.90;1.95;;;;;21.90;97817.00;;;;5045944;27;83389;-62
2022/07/15 07:08:53;;;;;;;3.13;1.85;;;21.50;99.90;21.80;97816.00;;;;5044220;28;82607;-63
2022/07/15 07:11:23;;;;;;;2.50;1.77;;;21.50;99.90;21.80;97818.00;;;;5039802;28;83007;-64
2022/07/15 07:13:50;;;;;;;3.13;1.77;;;21.70;99.90;21.90;97822.00;;;;5029456;28;83140;-64
2022/07/15 07:16:18;;;;;;;3.03;1.70;;;21.70;99.90;22.00;97805.00;;;;5044857;28;83349;-64
2022/07/15 07:18:47;;;;;;;3.00;2.10;;;21.80;99.90;22.00;97812.00;;;;5044288;28;84177;-63
2022/07/15 07:21:14;;;;;;;4.53;1.90;;;21.90;99.90;22.10;97826.00;;;;5044529;28;84035;-62
2022/07/15 07:23:41;;;;;;;3.92;2.20;;;22.20;99.90;22.30;97817.00;;;;5043636;27;82674;-64
2022/07/15 07:26:10;;;;;;;4.97;1.70;;;22.20;99.90;22.50;97823.00;;;;5026687;28;82675;-63
2022/07/15 07:28:40;;;;;;;2.33;1.80;;;22.40;99.90;22.60;97825.00;;;;5042770;27;83306;-64
2022/07/15 07:31:13;;;;;;;3.13;1.60;;;22.50;99.90;22.60;97846.00;;;;5043405;27;82221;-63
2022/07/15 07:33:41;;;;;;;1.95;1.50;;;22.50;99.90;22.60;97840.00;;;;5042981;28;81912;-63
2022/07/15 07:36:09;;;;;;;2.47;1.50;;;22.40;99.90;22.40;97846.00;;;;5044113;27;82404;-63
2022/07/15 07:38:37;;;;;;;3.38;1.40;;;22.30;99.90;22.40;97846.00;;;;5044713;28;82818;-64
2022/07/15 07:41:05;;;;;;;2.83;1.80;;;22.20;99.90;22.50;97851.00;;;;5042133;27;83280;-64
2022/07/15 07:43:32;;;;;;;5.50;1.75;;;22.20;99.90;22.40;97850.00;;;;5041568;28;82573;-62
2022/07/15 07:45:59;;;;;;;5.00;1.67;;;21.90;99.90;22.20;97832.00;;;;5044985;27;83480;-63
2022/07/15 07:48:30;;;;;;;4.18;1.85;;;22.20;99.90;22.50;97835.00;;;;5044000;27;83626;-64
2022/07/15 07:50:58;;;;;;;2.53;1.70;;;22.20;99.90;22.60;97835.00;;;;5060106;27;82334;-64
2022/07/15 07:53:26;;;;;;;5.82;1.60;;;22.20;99.90;22.60;97842.00;;;;5043825;27;82738;-65
2022/07/15 07:55:53;;;;;;;3.58;1.90;;;22.30;99.90;22.60;97831.00;;;;5043938;28;82269;-64
2022/07/15 07:58:20;;;;;;;2.05;1.50;;;22.10;99.90;22.50;97836.00;;;;5041331;27;82748;-64
2022/07/15 08:00:47;;;;;;;1.90;1.35;;;;;22.50;97839.00;;;;5046600;28;84416;-62
2022/07/15 08:03:15;;;;;;;2.60;2.00;;;22.10;99.90;22.40;97835.00;;;;5030726;28;83592;-63
2022/07/15 08:05:46;;;;;;;2.92;1.77;;;22.30;99.90;22.50;97829.00;;;;5063421;27;82195;-62
2022/07/15 08:08:19;;;;;;;5.68;1.35;;;22.40;99.90;22.70;97812.00;;;;5028684;28;84344;-63
2022/07/15 08:10:54;;;;;;;1.92;1.38;;;22.50;99.90;22.70;97802.00;;;;5045278;28;82148;-64
2022/07/15 08:13:25;;;;;;;2.67;1.45;;;22.50;99.90;22.60;97814.00;;;;5061879;27;83036;-63
2022/07/15 08:15:58;;;;;;;3.05;1.40;;;22.20;99.90;22.40;97802.00;;;;5046785;28;84071;-63
2022/07/15 08:18:26;;;;;;;3.47;1.40;;;22.30;99.90;22.40;97817.00;;;;5027687;28;86387;-64
2022/07/15 08:20:53;;;;;;;3.38;1.50;;;22.30;99.90;22.50;97830.00;;;;5053097;27;83757;-64
2022/07/15 08:23:23;;;;;;;2.72;1.48;;;22.30;99.90;22.60;97850.00;;;;5036772;27;81976;-63
2022/07/15 08:25:53;;;;;;;3.95;1.38;;;22.20;99.90;22.50;97866.00;;;;5046120;27;84490;-63
2022/07/15 08:28:20;;;;;;;5.53;1.90;;;22.40;99.90;22.60;97865.00;;;;5046794;28;81918;-62
2022/07/15 08:30:48;;;;;;;2.85;1.50;;;;;22.70;97853.00;;;;5045720;28;85107;-61
2022/07/15 08:33:15;;;;;;;3.47;1.65;;;22.70;99.90;23.10;97858.00;;;;5049775;27;82210;-64
2022/07/15 08:35:43;;;;;;;3.05;1.60;;;23.00;99.90;23.40;97869.00;;;;5046870;28;82521;-63
2022/07/15 08:38:11;;;;;;;3.17;1.48;;;23.20;99.90;23.70;97873.00;;;;5045782;27;83433;-62
2022/07/15 08:40:39;;;;;;;5.68;1.90;;;23.10;99.90;23.50;97870.00;;;;5047974;27;82930;-63
2022/07/15 08:43:09;;;;;;;2.80;1.60;;;23.30;99.90;23.60;97868.00;;;;5045578;27;83228;-65
2022/07/15 08:45:44;;;;;;;3.97;1.25;;;22.90;99.90;23.30;97857.00;;;;5042869;28;83138;-62
2022/07/15 08:48:16;;;;;;;3.13;1.40;;;23.00;99.90;23.40;97876.00;;;;5044146;28;81978;-63
2022/07/15 08:50:46;;;;;;;2.30;1.38;;;22.90;99.90;23.10;97871.00;;;;5026910;28;85079;-62
2022/07/15 08:53:13;;;;;;;5.23;1.63;;;22.70;99.90;23.00;97875.00;;;;5029651;28;81954;-64
2022/07/15 08:55:41;;;;;;;4.93;1.40;;;22.80;99.90;23.10;97875.00;;;;5044635;27;84026;-64
2022/07/15 08:58:09;;;;;;;2.17;1.50;;;21.70;99.90;23.20;97874.00;;;;5044162;27;83193;-64
2022/07/15 09:00:36;;;;;;;1.38;1.27;;;;;23.30;97883.00;;;;5046326;27;84172;-63
2022/07/15 09:03:09;;;;;;;4.97;1.58;;;23.00;99.90;23.30;97885.00;;;;5046288;28;81962;-62
2022/07/15 09:05:37;;;;;;;3.08;1.40;;;23.00;99.90;23.30;97876.00;;;;5036053;28;83080;-63
2022/07/15 09:08:14;;;;;;;3.63;1.40;;;23.30;99.90;23.50;97881.00;;;;5042940;28;85077;-62
2022/07/15 09:10:53;;;;;;;2.10;1.60;;;23.30;99.90;23.70;97882.00;;;;5045253;27;82171;-63
2022/07/15 09:13:40;;;;;;;1.70;1.27;;;23.60;99.90;23.90;97893.00;;;;5045322;27;81968;-62
2022/07/15 09:16:19;;;;;;;3.35;1.73;;;23.50;99.90;23.90;97886.00;;;;5043173;27;82233;-63
2022/07/15 09:18:46;;;;;;;3.83;1.33;;;;;23.80;97880.00;;;;5043893;28;83774;-63
2022/07/15 09:21:25;;;;;;;5.60;1.50;;;23.30;99.90;23.70;97893.00;;;;5046178;28;82485;-63
2022/07/15 09:23:53;;;;;;;4.07;1.23;;;23.20;99.90;23.50;97880.00;;;;5043254;28;82344;-62
2022/07/15 09:26:36;;;;;;;4.13;1.50;;;23.20;99.90;23.50;97888.00;;;;5047095;27;81772;-63
2022/07/15 09:33:34;;;;;;;5.22;1.40;;;23.00;99.90;23.50;97897.00;;;;5042852;28;82039;-62
2022/07/15 09:36:01;;;;;;;2.97;1.48;;;22.80;99.90;23.20;97903.00;;;;5044419;28;82796;-62
2022/07/15 09:37:57;;;;;;;2.10;1.27;;;22.60;99.90;22.90;97902.00;;;;5044761;28;82178;-61
2022/07/15 09:40:23;;;;;;;3.38;1.63;;;22.50;99.90;22.70;97886.00;;;;5041828;28;82690;-62
2022/07/15 09:43:05;;;;;;;5.22;1.52;;;22.60;99.90;22.80;97896.00;;;;5043883;27;82259;-62
2022/07/15 09:45:35;;;;;;;3.95;2.00;;;22.60;99.90;22.90;97886.00;;;;5041923;28;82251;-62
2022/07/15 09:48:12;;;;;;;1.90;1.40;;;22.50;99.90;22.90;97890.00;;;;5042033;27;82331;-62
2022/07/15 09:50:39;;;;;;;4.95;1.55;;;22.70;99.90;23.00;97882.00;;;;5044235;28;83031;-62
2022/07/15 09:53:12;;;;;;;4.82;1.30;;;22.80;99.90;23.10;97888.00;;;;5043960;27;82301;-62
2022/07/15 09:55:40;;;;;;;3.08;1.60;;;23.10;99.90;23.30;97879.00;;;;5043366;28;81838;-63
2022/07/15 09:58:08;;;;;;;2.85;1.40;;;23.30;99.90;23.60;97884.00;;;;5044028;27;82198;-62
2022/07/15 10:00:37;;;;;;;3.08;1.50;;;23.60;99.90;23.80;97874.00;;;;5043190;27;85025;-64
2022/07/15 10:03:04;;;;;;;7.50;3.47;;;23.80;99.90;24.10;97886.00;;;;5040854;28;83446;-62
2022/07/15 10:05:32;;;;;;;3.53;1.60;;;24.00;99.90;24.30;97883.00;;;;5043634;28;82010;-62
2022/07/15 10:08:03;;;;;;;7.15;3.28;;;24.10;99.90;24.40;97896.00;;;;5025257;28;83994;-62
2022/07/15 10:10:32;;;;;;;4.32;2.15;;;24.20;99.90;24.60;97899.00;;;;5042589;28;82586;-61
2022/07/15 10:13:17;;;;;;;4.90;1.70;;;24.20;99.90;24.40;97902.00;;;;5043435;27;82320;-62
2022/07/15 10:16:03;;;;;;;2.10;1.15;;;23.80;99.90;24.00;97901.00;;;;5040897;28;82827;-62
2022/07/15 10:18:49;;;;;;;3.15;1.23;;;23.50;99.90;23.90;97904.00;;;;5026271;28;82857;-63
2022/07/15 10:21:38;;;;;;;3.63;1.40;;;23.70;99.90;24.00;97882.00;;;;5041614;27;82763;-62
2022/07/15 10:24:35;;;;;;;3.92;1.60;;;23.80;99.90;24.20;97893.00;;;;5039670;28;83473;-62
2022/07/15 10:27:30;;;;;;;2.10;1.20;;;23.70;99.90;24.10;97890.00;;;;5041672;28;83388;-62
2022/07/15 10:29:57;;;;;;;9.45;1.70;;;23.60;99.90;23.90;97895.00;;;;5041068;28;83017;-62
2022/07/15 10:32:23;;;;;;;3.15;1.27;;;23.40;99.90;23.70;97903.00;;;;5039967;28;83308;-62
2022/07/15 10:34:50;;;;;;;2.50;1.35;;;23.40;99.90;23.60;97893.00;;;;5042108;27;83435;-62
2022/07/15 10:37:16;;;;;;;8.88;6.72;;;;;23.70;97899.00;;;;5039170;27;82376;-62
2022/07/15 10:40:06;;;;;;;12.35;8.73;;;23.60;99.90;23.80;97893.00;;;;5042537;28;82329;-62
2022/07/15 10:43:03;;;;;;;2.63;1.10;;;23.40;99.90;23.60;97890.00;;;;5040725;27;82580;-62
2022/07/15 10:45:30;;;;;;;4.72;1.15;;;23.20;99.90;23.50;97891.00;;;;5051063;27;83529;-63
2022/07/15 10:48:26;;;;;;;3.50;1.30;;;23.10;99.90;23.40;97897.00;;;;5024823;28;82333;-61
2022/07/15 10:50:52;;;;;;;4.32;1.65;;;23.10;99.90;23.40;97908.00;;;;5039284;28;82281;-63
2022/07/15 10:53:24;;;;;;;4.75;1.60;;;23.20;99.90;23.50;97905.00;;;;5040986;28;84139;-63
2022/07/15 10:55:51;;;;;;;4.88;2.00;;;23.40;99.90;23.70;97901.00;;;;5039715;27;84186;-62
2022/07/15 10:58:18;;;;;;;1.95;1.25;;;23.30;99.90;23.70;97907.00;;;;5042675;27;82321;-62
2022/07/15 11:00:46;;;;;;;3.42;1.45;;;23.40;99.90;23.70;97924.00;;;;5043159;27;83399;-62
2022/07/15 11:03:19;;;;;;;8.50;2.22;;;23.40;99.90;23.70;97919.00;;;;5031235;28;85352;-62
2022/07/15 11:05:52;;;;;;;6.35;1.50;;;23.30;99.90;23.60;97923.00;;;;5038478;27;83235;-62
2022/07/15 11:08:44;;;;;;;3.42;1.30;;;23.40;99.90;23.70;97917.00;;;;5040486;27;82441;-62
2022/07/15 11:11:13;;;;;;;10.75;6.65;;;23.60;99.90;23.90;97929.00;;;;5039706;27;82861;-62
2022/07/15 11:13:41;;;;;;;4.25;1.55;;;23.50;99.90;24.00;97910.00;;;;5042002;27;83936;-62
2022/07/15 11:16:19;;;;;;;4.30;1.25;;;23.60;99.90;24.00;97912.00;;;;5041752;27;82283;-62
2022/07/15 11:18:54;;;;;;;2.97;1.40;;;23.70;99.90;24.10;97917.00;;;;5038491;28;83155;-61
2022/07/15 11:21:22;;;;;;;3.97;1.40;;;23.80;99.90;24.20;97918.00;;;;5041657;28;82677;-61
2022/07/15 11:23:51;;;;;;;5.22;1.70;;;24.00;99.90;24.30;97919.00;;;;5040380;28;82813;-62